Time;durP1;ratioP1;P1;durP2;ratioP2;P2;SDS_P1;SDS_P2;PMS_P1;PMS_P2;Temp;Humidity;BMP_temperature;BMP_pressure;BME280_temperature;BME280_humidity;BME280_pressure;Samples;Min_cycle;Max_cycle;Signal;HPM_P1;HPM_P2
2023/09/06 00:01:08;;;;;;;2.20;1.73;;;30.20;63.00;;;;;;10524193;28;20127;-33
2023/09/06 00:06:10;;;;;;;2.80;2.10;;;30.10;62.90;;;;;;10524828;28;20083;-32
2023/09/06 00:11:12;;;;;;;2.28;1.70;;;30.10;62.90;;;;;;10525605;28;20071;-34
2023/09/06 00:16:16;;;;;;;4.63;2.15;;;30.00;62.90;;;;;;10523551;28;20095;-36
2023/09/06 00:21:18;;;;;;;2.00;1.60;;;30.00;62.90;;;;;;10536116;28;20143;-36
2023/09/06 00:26:20;;;;;;;2.63;1.60;;;30.00;62.80;;;;;;10519448;28;20744;-36
2023/09/06 00:31:23;;;;;;;1.50;1.40;;;30.00;62.80;;;;;;10520530;28;20044;-34
2023/09/06 00:36:28;;;;;;;2.47;1.70;;;29.90;62.80;;;;;;10517395;28;20474;-32
2023/09/06 00:41:30;;;;;;;4.90;1.60;;;29.90;62.80;;;;;;10526354;28;20036;-35
2023/09/06 00:46:34;;;;;;;3.50;1.65;;;29.80;62.70;;;;;;10520618;28;20138;-33
2023/09/06 00:51:36;;;;;;;3.33;1.80;;;29.70;62.70;;;;;;10532845;28;20040;-32
2023/09/06 00:56:39;;;;;;;2.40;1.55;;;29.70;62.80;;;;;;10521074;28;20406;-33
2023/09/06 01:01:42;;;;;;;2.13;1.48;;;29.70;62.90;;;;;;10529885;28;20457;-36
2023/09/06 01:06:46;;;;;;;2.13;1.65;;;29.70;63.00;;;;;;10537798;28;20678;-37
2023/09/06 01:11:48;;;;;;;2.50;1.42;;;29.70;63.00;;;;;;10521765;28;20127;-35
2023/09/06 01:16:54;;;;;;;2.20;1.50;;;29.60;63.00;;;;;;10529169;28;20126;-32
2023/09/06 01:22:05;;;;;;;1.95;1.67;;;29.60;63.20;;;;;;10533786;28;20044;-35
2023/09/06 01:27:09;;;;;;;1.92;1.55;;;29.60;63.20;;;;;;10531976;28;20052;-35
2023/09/06 01:32:11;;;;;;;2.35;1.77;;;29.50;63.30;;;;;;10523810;28;20142;-31
2023/09/06 01:37:13;;;;;;;4.07;1.60;;;29.50;63.30;;;;;;10533311;28;20052;-35
2023/09/06 01:42:22;;;;;;;3.80;1.70;;;29.50;63.30;;;;;;10519885;28;20045;-33
2023/09/06 01:47:25;;;;;;;2.67;1.70;;;29.40;63.40;;;;;;10520892;28;20505;-32
2023/09/06 01:52:27;;;;;;;2.13;1.80;;;29.50;63.50;;;;;;10533620;28;20036;-36
2023/09/06 01:57:30;;;;;;;2.83;1.80;;;29.30;63.40;;;;;;10534746;28;20048;-33
2023/09/06 02:02:31;;;;;;;5.30;1.95;;;29.40;63.50;;;;;;10527540;28;20134;-32
2023/09/06 02:07:33;;;;;;;3.20;1.90;;;29.30;63.50;;;;;;10543724;28;20068;-33
2023/09/06 02:12:36;;;;;;;2.30;1.67;;;29.30;63.70;;;;;;10532270;28;20141;-34
2023/09/06 02:17:38;;;;;;;1.75;1.48;;;29.30;63.70;;;;;;10535164;28;20544;-35
2023/09/06 02:22:41;;;;;;;2.72;1.67;;;29.30;63.70;;;;;;10533564;28;20097;-36
2023/09/06 02:27:44;;;;;;;1.80;1.55;;;29.20;63.70;;;;;;10529763;28;20052;-38
2023/09/06 02:32:47;;;;;;;1.92;1.63;;;29.20;63.80;;;;;;10534770;28;20492;-33
2023/09/06 02:37:49;;;;;;;2.55;1.77;;;29.20;63.80;;;;;;10531235;28;20113;-33
2023/09/06 02:42:53;;;;;;;3.58;2.38;;;29.10;63.80;;;;;;10521887;28;20105;-32
2023/09/06 02:47:55;;;;;;;2.10;1.67;;;29.10;63.90;;;;;;10530821;28;20522;-33
2023/09/06 02:52:57;;;;;;;2.22;1.67;;;29.10;64.00;;;;;;10517180;28;20125;-36
2023/09/06 03:15:29;;;;;;;2.30;1.63;;;28.90;63.90;;;;;;10468276;27;2149720;-34
2023/09/06 03:20:34;;;;;;;3.67;1.88;;;28.90;64.50;;;;;;10545278;28;20040;-32
2023/09/06 03:25:40;;;;;;;2.88;1.80;;;28.90;64.50;;;;;;10553987;28;20051;-38
2023/09/06 03:30:43;;;;;;;2.88;1.83;;;28.80;64.30;;;;;;10560595;28;20040;-35
2023/09/06 03:35:46;;;;;;;3.75;2.00;;;28.80;64.40;;;;;;10547649;28;20602;-35
2023/09/06 03:40:49;;;;;;;2.35;1.67;;;28.80;64.40;;;;;;10539330;28;20048;-32
2023/09/06 03:45:53;;;;;;;5.63;1.70;;;28.80;64.50;;;;;;10554239;28;20051;-38
2023/09/06 03:50:56;;;;;;;2.97;1.95;;;28.80;64.40;;;;;;10561133;28;20058;-32
2023/09/06 03:56:00;;;;;;;2.65;1.95;;;28.80;64.40;;;;;;10540565;28;20052;-37
2023/09/06 04:01:04;;;;;;;3.22;2.13;;;28.70;64.50;;;;;;10551831;28;20056;-32
2023/09/06 04:06:07;;;;;;;3.75;1.80;;;28.70;64.50;;;;;;10564074;28;20043;-32
2023/09/06 04:11:10;;;;;;;7.47;2.92;;;28.70;64.50;;;;;;10545179;28;20353;-33
2023/09/06 04:16:13;;;;;;;3.00;1.95;;;28.70;64.60;;;;;;10555288;28;20074;-37
2023/09/06 04:21:15;;;;;;;2.08;1.73;;;28.60;64.60;;;;;;10557611;28;20047;-37
2023/09/06 04:26:17;;;;;;;4.10;2.03;;;28.60;64.60;;;;;;10518252;28;20068;-40
2023/09/06 04:31:20;;;;;;;2.53;1.80;;;28.60;64.70;;;;;;10513601;28;20489;-32
2023/09/06 04:36:22;;;;;;;2.65;2.28;;;28.60;64.70;;;;;;10517669;28;20068;-35
2023/09/06 04:41:24;;;;;;;2.70;2.17;;;28.50;64.70;;;;;;10521197;28;20106;-32
2023/09/06 04:46:27;;;;;;;4.07;2.35;;;28.50;64.60;;;;;;10506837;28;20040;-31
2023/09/06 04:51:29;;;;;;;4.53;2.35;;;28.50;64.60;;;;;;10526802;28;20477;-31
2023/09/06 04:56:34;;;;;;;4.10;2.58;;;28.50;64.50;;;;;;10509998;28;20143;-38
2023/09/06 05:01:38;;;;;;;5.43;2.40;;;28.40;65.00;;;;;;10519278;28;20040;-32
2023/09/06 05:06:39;;;;;;;5.28;2.25;;;28.40;64.30;;;;;;10522395;28;20627;-38
2023/09/06 05:11:41;;;;;;;4.30;2.30;;;28.40;64.40;;;;;;10520076;28;20064;-32
2023/09/06 05:16:44;;;;;;;3.67;2.25;;;28.30;64.50;;;;;;10529212;28;20131;-35
2023/09/06 05:21:46;;;;;;;2.22;1.60;;;28.40;64.80;;;;;;10536654;28;20142;-37
2023/09/06 05:26:48;;;;;;;3.03;2.20;;;28.40;65.10;;;;;;10517312;28;20747;-29
2023/09/06 05:31:51;;;;;;;3.55;2.15;;;28.30;65.10;;;;;;10512641;28;20048;-34
2023/09/06 05:36:55;;;;;;;2.70;1.90;;;28.30;65.30;;;;;;10515100;28;20052;-34
2023/09/06 05:41:57;;;;;;;4.40;2.25;;;28.30;65.50;;;;;;10511893;28;20135;-33
2023/09/06 05:47:00;;;;;;;8.57;2.80;;;28.30;65.60;;;;;;10506453;28;20052;-36
2023/09/06 05:52:02;;;;;;;4.82;2.20;;;28.30;65.40;;;;;;10516571;28;20485;-36
2023/09/06 05:57:05;;;;;;;4.10;2.70;;;28.30;65.50;;;;;;10509680;28;20075;-37
2023/09/06 06:02:08;;;;;;;4.25;2.13;;;28.30;65.40;;;;;;10506377;28;20516;-36
2023/09/06 06:07:10;;;;;;;3.85;2.65;;;28.30;65.40;;;;;;10520574;28;20059;-31
2023/09/06 06:12:13;;;;;;;5.30;2.22;;;28.30;65.40;;;;;;10525690;28;20044;-35
2023/09/06 06:17:16;;;;;;;4.82;2.35;;;28.30;65.40;;;;;;10512482;28;20495;-33
2023/09/06 06:22:18;;;;;;;4.32;2.40;;;28.30;65.30;;;;;;10518733;28;20134;-35
2023/09/06 06:27:20;;;;;;;3.60;2.30;;;28.30;65.30;;;;;;10514181;28;20540;-29
2023/09/06 06:32:23;;;;;;;3.28;2.13;;;28.30;65.90;;;;;;10517696;28;20628;-32
2023/09/06 06:37:26;;;;;;;6.93;2.55;;;28.30;65.90;;;;;;10521327;28;20075;-32
2023/09/06 06:42:28;;;;;;;4.70;3.03;;;28.40;65.30;;;;;;10512057;28;20048;-35
2023/09/06 06:47:31;;;;;;;5.68;2.72;;;28.40;65.80;;;;;;10509461;28;20097;-34
2023/09/06 06:52:33;;;;;;;2.92;2.10;;;28.40;65.20;;;;;;10528351;28;20090;-34
2023/09/06 06:57:35;;;;;;;5.10;3.03;;;28.40;65.20;;;;;;10510136;28;20050;-34
2023/09/06 07:02:38;;;;;;;5.95;2.60;;;28.40;65.20;;;;;;10524843;28;20127;-34
2023/09/06 07:07:40;;;;;;;4.72;2.35;;;28.50;65.10;;;;;;10520002;28;20094;-33
2023/09/06 07:12:42;;;;;;;4.53;2.60;;;28.50;65.10;;;;;;10513064;28;20056;-40
2023/09/06 07:17:45;;;;;;;3.92;2.55;;;28.50;65.10;;;;;;10500978;28;20773;-34
2023/09/06 07:22:47;;;;;;;5.32;2.33;;;28.60;65.10;;;;;;10526435;28;20079;-32
2023/09/06 07:27:49;;;;;;;3.65;2.35;;;28.60;65.00;;;;;;10514805;28;20090;-38
2023/09/06 07:32:53;;;;;;;3.75;2.38;;;28.60;65.00;;;;;;10523795;28;20222;-32
2023/09/06 07:37:54;;;;;;;4.30;2.15;;;28.60;65.00;;;;;;10516070;28;20047;-33
2023/09/06 07:42:56;;;;;;;4.75;3.08;;;28.70;65.00;;;;;;10526259;28;20127;-42
2023/09/06 07:48:01;;;;;;;3.90;2.65;;;28.70;64.90;;;;;;10513005;28;20075;-39
2023/09/06 07:53:03;;;;;;;2.63;2.28;;;28.70;64.90;;;;;;10517019;28;20143;-34
2023/09/06 07:58:06;;;;;;;3.58;2.22;;;28.80;64.90;;;;;;10521498;28;20070;-40
2023/09/06 08:03:09;;;;;;;7.45;2.45;;;28.80;64.90;;;;;;10539121;28;20485;-34
2023/09/06 08:08:11;;;;;;;2.55;2.20;;;28.80;64.80;;;;;;10529075;28;20130;-33
2023/09/06 08:13:13;;;;;;;3.95;2.42;;;28.80;64.80;;;;;;10531408;28;20477;-39
2023/09/06 08:18:16;;;;;;;3.35;2.22;;;28.80;64.90;;;;;;10515398;28;20127;-32
2023/09/06 08:23:18;;;;;;;5.47;2.47;;;28.80;64.80;;;;;;10526195;28;20048;-35
2023/09/06 08:28:20;;;;;;;3.58;2.40;;;28.90;64.80;;;;;;10514295;28;20482;-33
2023/09/06 08:33:24;;;;;;;3.38;2.45;;;28.90;64.80;;;;;;10504836;28;20048;-38
2023/09/06 08:38:26;;;;;;;4.22;2.13;;;29.00;64.60;;;;;;10517249;28;20516;-32
2023/09/06 08:43:35;;;;;;;3.58;2.00;;;29.00;64.60;;;;;;10527485;28;20131;-34
2023/09/06 08:48:39;;;;;;;3.28;2.35;;;28.90;64.60;;;;;;10519738;28;20100;-34
2023/09/06 08:53:43;;;;;;;2.65;2.13;;;29.00;64.60;;;;;;10509066;28;20072;-32
2023/09/06 08:58:46;;;;;;;2.63;2.13;;;29.10;64.00;;;;;;10527855;28;20044;-33
2023/09/06 09:03:49;;;;;;;2.85;2.03;;;29.20;64.30;;;;;;10526108;28;20157;-32
2023/09/06 09:08:51;;;;;;;3.65;2.00;;;29.20;64.30;;;;;;10527062;28;20062;-32
2023/09/06 09:13:53;;;;;;;4.55;2.67;;;29.30;63.90;;;;;;10514303;28;20143;-32
2023/09/06 09:18:57;;;;;;;2.63;1.63;;;29.20;64.10;;;;;;10505777;28;20119;-40
2023/09/06 09:23:59;;;;;;;2.58;1.70;;;29.30;64.00;;;;;;10514547;28;20048;-33
2023/09/06 09:29:03;;;;;;;2.88;2.25;;;29.30;63.90;;;;;;10502412;28;20048;-34
2023/09/06 09:34:06;;;;;;;2.45;1.60;;;29.40;64.40;;;;;;10508047;28;20066;-33
2023/09/06 09:39:08;;;;;;;2.67;1.73;;;29.40;63.90;;;;;;10513784;28;20068;-37
2023/09/06 09:44:14;;;;;;;4.32;1.83;;;29.30;64.50;;;;;;10523286;28;20110;-34
2023/09/06 09:49:20;;;;;;;4.00;1.80;;;29.50;63.80;;;;;;10527278;28;20106;-32
2023/09/06 09:54:25;;;;;;;2.90;1.70;;;29.80;63.10;;;;;;10530415;28;20076;-36
2023/09/06 09:59:27;;;;;;;3.92;1.92;;;29.70;63.50;;;;;;10526667;28;20435;-40
2023/09/06 10:04:35;;;;;;;4.55;2.17;;;29.70;63.60;;;;;;10517195;28;20424;-35
2023/09/06 10:09:40;;;;;;;2.92;2.33;;;29.70;63.30;;;;;;10524077;28;20066;-32
2023/09/06 10:14:42;;;;;;;4.70;1.90;;;29.70;63.50;;;;;;10517454;28;20102;-34
2023/09/06 10:19:46;;;;;;;7.60;2.38;;;29.70;63.10;;;;;;10527352;28;20082;-36
2023/09/06 10:24:53;;;;;;;3.95;2.38;;;29.20;64.90;;;;;;10523982;28;20106;-35
2023/09/06 10:29:55;;;;;;;7.82;2.45;;;29.80;63.60;;;;;;10527386;28;20097;-31
2023/09/06 10:35:25;;;;;;;3.65;2.25;;;29.80;63.40;;;;;;10516712;28;20048;-34
2023/09/06 10:41:09;;;;;;;3.65;1.77;;;29.80;65.00;;;;;;10508825;28;20122;-37
2023/09/06 10:46:27;;;;;;;6.00;3.13;;;30.50;62.30;;;;;;10522851;28;20042;-35
2023/09/06 10:51:30;;;;;;;2.42;1.40;;;30.20;63.00;;;;;;10520793;28;20389;-33
2023/09/06 10:56:32;;;;;;;10.80;2.50;;;30.10;62.90;;;;;;10512978;28;20140;-33
2023/09/06 11:01:34;;;;;;;9.88;2.47;;;29.80;62.80;;;;;;10525192;28;20043;-36
2023/09/06 11:06:52;;;;;;;4.95;2.10;;;29.50;64.80;;;;;;10520559;28;20156;-32
2023/09/06 11:11:55;;;;;;;2.90;1.80;;;29.60;62.70;;;;;;10516887;28;20060;-34
2023/09/06 11:16:57;;;;;;;3.53;1.50;;;30.00;62.10;;;;;;10521860;28;20085;-37
2023/09/06 11:22:11;;;;;;;5.45;2.10;;;30.10;59.90;;;;;;10508440;28;20522;-34
2023/09/06 11:27:21;;;;;;;3.25;1.95;;;29.80;59.70;;;;;;10508230;28;20506;-33
2023/09/06 11:32:23;;;;;;;4.03;1.90;;;29.80;61.00;;;;;;10498012;28;20044;-34
2023/09/06 11:37:26;;;;;;;10.50;2.15;;;30.20;61.30;;;;;;10523136;28;20097;-32
2023/09/06 11:42:31;;;;;;;4.93;1.95;;;30.10;61.10;;;;;;10523966;28;20234;-36
2023/09/06 11:47:33;;;;;;;5.47;2.30;;;30.40;62.00;;;;;;10509296;28;20043;-31
2023/09/06 11:52:37;;;;;;;7.55;2.08;;;30.70;60.20;;;;;;10515964;28;20048;-34
2023/09/06 11:57:46;;;;;;;5.75;2.22;;;31.00;60.00;;;;;;10523610;28;20497;-37
2023/09/06 12:02:48;;;;;;;3.47;2.17;;;31.40;58.50;;;;;;10515187;28;20608;-37
2023/09/06 12:07:51;;;;;;;2.15;1.63;;;31.70;58.20;;;;;;10519623;28;20102;-38
2023/09/06 12:12:53;;;;;;;5.03;1.83;;;32.00;58.40;;;;;;10521962;28;20501;-36
2023/09/06 12:17:56;;;;;;;2.70;1.98;;;32.50;57.90;;;;;;10528387;28;20469;-32
2023/09/06 12:22:59;;;;;;;5.95;2.40;;;32.40;56.50;;;;;;10520841;28;20040;-35
2023/09/06 12:28:03;;;;;;;4.53;2.33;;;32.70;54.80;;;;;;10514733;28;20727;-34
2023/09/06 12:33:04;;;;;;;5.80;2.72;;;33.20;56.90;;;;;;10510175;28;20385;-37
2023/09/06 12:38:08;;;;;;;7.68;2.13;;;33.40;56.30;;;;;;10519977;28;20093;-31
2023/09/06 12:43:10;;;;;;;3.92;2.53;;;33.70;55.90;;;;;;10501789;28;20055;-32
2023/09/06 12:48:11;;;;;;;5.97;2.42;;;34.20;54.50;;;;;;10507575;28;20071;-35
2023/09/06 12:53:16;;;;;;;6.20;2.85;;;34.10;53.60;;;;;;10504113;28;20157;-35
2023/09/06 12:58:18;;;;;;;15.68;5.10;;;34.50;53.40;;;;;;10517142;28;20539;-40
2023/09/06 13:03:20;;;;;;;7.43;4.10;;;34.50;56.40;;;;;;10529992;28;20530;-32
2023/09/06 13:08:24;;;;;;;5.88;3.45;;;34.10;56.50;;;;;;10515711;28;20127;-33
2023/09/06 13:13:25;;;;;;;11.07;5.00;;;33.60;57.50;;;;;;10518443;28;20708;-37
2023/09/06 13:18:28;;;;;;;9.48;3.90;;;33.10;57.40;;;;;;10520540;28;20409;-36
2023/09/06 13:23:31;;;;;;;8.13;4.78;;;32.90;59.60;;;;;;10514471;28;20404;-40
2023/09/06 13:28:34;;;;;;;4.68;2.35;;;32.80;58.10;;;;;;10516990;28;20127;-40
2023/09/06 13:33:36;;;;;;;6.72;4.20;;;33.90;60.20;;;;;;10505228;28;20056;-32
2023/09/06 13:38:39;;;;;;;7.72;5.65;;;33.90;56.00;;;;;;10522035;28;20062;-40
2023/09/06 13:43:41;;;;;;;12.02;4.70;;;33.30;56.30;;;;;;10529381;28;20106;-32
2023/09/06 13:48:42;;;;;;;18.00;4.50;;;33.50;56.00;;;;;;10521647;28;20111;-33
2023/09/06 13:53:46;;;;;;;11.02;4.68;;;34.10;55.60;;;;;;10518839;28;20190;-35
2023/09/06 13:58:49;;;;;;;20.30;2.92;;;33.70;60.50;;;;;;10521787;28;20138;-35
2023/09/06 14:03:50;;;;;;;10.48;5.88;;;34.50;59.20;;;;;;10511837;28;20086;-41
2023/09/06 14:08:54;;;;;;;5.80;3.17;;;34.00;56.30;;;;;;10512776;28;20044;-36
2023/09/06 14:13:56;;;;;;;8.27;4.70;;;33.70;63.30;;;;;;10498132;28;20074;-34
2023/09/06 14:18:58;;;;;;;10.23;5.60;;;34.20;60.70;;;;;;10513506;28;20127;-33
2023/09/06 14:24:01;;;;;;;9.68;6.85;;;34.50;56.10;;;;;;10513530;28;20094;-36
2023/09/06 14:29:02;;;;;;;8.43;3.65;;;33.90;54.60;;;;;;10514693;28;20122;-34
2023/09/06 14:34:04;;;;;;;11.30;5.68;;;34.80;55.90;;;;;;10508604;28;20629;-33
2023/09/06 14:39:07;;;;;;;13.13;4.80;;;35.40;54.30;;;;;;10513710;28;20055;-35
2023/09/06 14:44:09;;;;;;;4.10;2.20;;;35.70;56.20;;;;;;10499565;28;20040;-36
2023/09/06 14:49:13;;;;;;;10.02;6.82;;;36.40;56.80;;;;;;10522314;28;20075;-33
2023/09/06 14:54:16;;;;;;;9.40;6.05;;;36.70;53.30;;;;;;10511899;28;20059;-37
2023/09/06 14:59:18;;;;;;;13.73;6.55;;;36.60;53.30;;;;;;10505325;28;20754;-36
2023/09/06 15:04:20;;;;;;;13.75;6.78;;;36.40;52.70;;;;;;10512138;28;20044;-36
2023/09/06 15:09:23;;;;;;;9.63;5.97;;;36.80;53.90;;;;;;10510259;28;20044;-32
2023/09/06 15:14:25;;;;;;;12.00;6.10;;;36.70;52.70;;;;;;10521014;28;20139;-34
2023/09/06 15:19:28;;;;;;;10.30;5.68;;;36.60;51.40;;;;;;10501438;28;20094;-35
2023/09/06 15:24:31;;;;;;;3.53;2.10;;;36.00;51.90;;;;;;10513913;28;20044;-32
2023/09/06 15:29:33;;;;;;;3.42;2.30;;;36.60;56.80;;;;;;10500856;28;20048;-33
2023/09/06 15:34:36;;;;;;;5.00;2.10;;;37.20;58.10;;;;;;10512741;28;20501;-39
2023/09/06 15:39:42;;;;;;;9.30;3.67;;;37.90;56.90;;;;;;10518065;28;20156;-34
2023/09/06 15:44:44;;;;;;;6.18;4.25;;;38.30;56.70;;;;;;10502255;28;20389;-34
2023/09/06 15:49:50;;;;;;;3.95;2.78;;;39.00;50.80;;;;;;10508160;28;20110;-32
2023/09/06 15:54:53;;;;;;;6.53;3.80;;;38.90;53.60;;;;;;10524037;28;20481;-34
2023/09/06 15:59:55;;;;;;;5.43;3.45;;;39.60;51.20;;;;;;10508897;28;20094;-34
2023/09/06 16:04:57;;;;;;;15.10;3.53;;;40.10;54.30;;;;;;10504185;28;20126;-35
2023/09/06 16:10:00;;;;;;;7.97;3.53;;;39.90;52.60;;;;;;10518615;28;20557;-34
2023/09/06 16:15:01;;;;;;;8.70;2.38;;;40.50;51.00;;;;;;10515537;28;20054;-33
2023/09/06 16:20:04;;;;;;;6.20;2.60;;;41.20;55.50;;;;;;10509729;28;20052;-40
2023/09/06 16:25:08;;;;;;;12.60;3.28;;;41.60;49.00;;;;;;10519306;28;20398;-37
2023/09/06 16:30:10;;;;;;;5.05;2.60;;;42.20;48.40;;;;;;10527456;28;20079;-38
2023/09/06 16:35:12;;;;;;;2.97;1.88;;;43.00;51.00;;;;;;10519848;28;20090;-37
2023/09/06 16:40:20;;;;;;;5.82;1.50;;;43.10;46.40;;;;;;10521771;28;21099;-32
2023/09/06 16:45:22;;;;;;;2.88;1.30;;;41.30;48.80;;;;;;10510847;28;20055;-37
2023/09/06 16:50:24;;;;;;;1.60;1.40;;;39.30;55.20;;;;;;10510693;28;20123;-34
2023/09/06 16:55:27;;;;;;;4.05;1.67;;;39.30;54.80;;;;;;10503044;28;20101;-31
2023/09/06 17:00:31;;;;;;;3.38;2.13;;;40.40;49.50;;;;;;10512292;28;20090;-34
2023/09/06 17:05:34;;;;;;;1.60;1.27;;;42.10;46.30;;;;;;10535272;28;20051;-34
2023/09/06 17:10:37;;;;;;;2.78;1.90;;;41.50;54.70;;;;;;10516625;28;20386;-37
2023/09/06 17:15:40;;;;;;;2.90;1.85;;;41.10;48.00;;;;;;10515100;28;20095;-38
2023/09/06 17:20:41;;;;;;;3.22;1.88;;;41.40;50.20;;;;;;10519864;28;20059;-34
2023/09/06 17:25:45;;;;;;;1.90;1.33;;;41.30;54.30;;;;;;10520242;28;20079;-34
2023/09/06 17:30:47;;;;;;;4.88;1.52;;;40.10;56.20;;;;;;10519339;28;20061;-37
2023/09/06 17:35:48;;;;;;;4.07;1.80;;;39.00;67.30;;;;;;10512124;28;20051;-30
2023/09/06 17:40:53;;;;;;;1.55;1.33;;;39.10;56.10;;;;;;10519238;28;20047;-33
2023/09/06 17:45:55;;;;;;;2.03;1.10;;;40.00;56.40;;;;;;10513703;28;20058;-32
2023/09/06 17:50:59;;;;;;;2.97;1.50;;;39.70;59.70;;;;;;10520523;28;20079;-32
2023/09/06 17:56:12;;;;;;;1.58;1.30;;;39.00;61.60;;;;;;10504893;28;20105;-32
2023/09/06 18:01:14;;;;;;;3.75;1.60;;;38.90;60.70;;;;;;10513487;28;20432;-32
2023/09/06 18:06:23;;;;;;;4.47;1.88;;;38.40;63.00;;;;;;10526681;28;20067;-31
2023/09/06 18:11:26;;;;;;;1.50;1.20;;;38.80;61.40;;;;;;10527901;28;20091;-31
2023/09/06 18:16:29;;;;;;;3.92;1.50;;;38.30;66.20;;;;;;10526085;28;20056;-33
2023/09/06 18:21:31;;;;;;;1.83;1.30;;;38.30;67.50;;;;;;10512738;28;20488;-35
2023/09/06 18:26:34;;;;;;;2.92;1.45;;;38.10;68.20;;;;;;10515554;28;20075;-31
2023/09/06 18:31:36;;;;;;;1.48;0.98;;;37.70;68.20;;;;;;10505371;28;20048;-36
2023/09/06 18:36:37;;;;;;;2.75;1.50;;;37.90;69.80;;;;;;10509505;28;20060;-31
2023/09/06 18:41:40;;;;;;;1.83;1.10;;;37.90;71.00;;;;;;10520049;28;20127;-41
2023/09/06 18:46:42;;;;;;;3.38;1.55;;;37.70;70.10;;;;;;10518258;28;20163;-34
2023/09/06 18:51:44;;;;;;;1.90;1.58;;;37.30;70.30;;;;;;10510168;28;20054;-33
2023/09/06 18:56:47;;;;;;;1.52;1.25;;;37.10;68.50;;;;;;10505901;28;20048;-34
2023/09/06 19:01:49;;;;;;;1.60;1.23;;;36.50;67.80;;;;;;10510464;28;20550;-35
2023/09/06 19:06:51;;;;;;;4.10;1.70;;;36.00;66.80;;;;;;10533625;28;20040;-32
2023/09/06 19:11:54;;;;;;;3.10;1.52;;;35.80;65.90;;;;;;10500802;28;20055;-34
2023/09/06 19:16:56;;;;;;;1.65;1.40;;;35.60;65.80;;;;;;10519811;28;20080;-38
2023/09/06 19:21:58;;;;;;;3.13;1.42;;;35.60;66.10;;;;;;10514685;28;20535;-37
2023/09/06 19:27:01;;;;;;;2.75;1.40;;;35.40;65.90;;;;;;10508228;28;20059;-33
2023/09/06 19:32:03;;;;;;;1.80;1.70;;;35.10;65.00;;;;;;10507370;28;20124;-35
2023/09/06 19:37:05;;;;;;;2.22;1.60;;;35.00;64.30;;;;;;10515914;28;20572;-35
2023/09/06 19:42:08;;;;;;;7.63;2.20;;;34.90;64.40;;;;;;10518210;28;20102;-35
2023/09/06 19:47:11;;;;;;;3.00;1.92;;;34.80;64.10;;;;;;10516343;28;20071;-34
2023/09/06 19:52:13;;;;;;;3.90;2.53;;;34.60;63.90;;;;;;10519369;28;20048;-37
2023/09/06 19:57:16;;;;;;;4.78;2.05;;;34.40;63.70;;;;;;10513658;28;20047;-37
2023/09/06 20:02:18;;;;;;;6.68;1.83;;;34.30;64.20;;;;;;10509900;28;20052;-36
2023/09/06 20:07:20;;;;;;;7.00;2.33;;;34.20;63.30;;;;;;10526520;28;20473;-35
2023/09/06 20:12:23;;;;;;;6.05;2.20;;;34.00;63.20;;;;;;10522009;28;20048;-33
2023/09/06 20:17:25;;;;;;;3.85;2.13;;;34.00;63.50;;;;;;10512626;28;20075;-36
2023/09/06 20:22:27;;;;;;;5.18;2.20;;;33.80;63.20;;;;;;10526130;28;20075;-35
2023/09/06 20:27:31;;;;;;;2.90;2.00;;;33.70;62.90;;;;;;10521271;28;20063;-35
2023/09/06 20:32:33;;;;;;;2.67;2.17;;;33.50;62.40;;;;;;10520602;28;20075;-35
2023/09/06 20:37:35;;;;;;;4.57;2.20;;;33.40;62.70;;;;;;10508959;28;20077;-35
2023/09/06 20:42:38;;;;;;;2.63;1.90;;;33.30;62.40;;;;;;10523341;28;20044;-33
2023/09/06 20:47:40;;;;;;;3.28;2.25;;;33.20;62.50;;;;;;10515572;28;20097;-29
2023/09/06 20:52:42;;;;;;;3.85;2.20;;;33.20;62.50;;;;;;10521137;28;20146;-37
2023/09/06 20:57:45;;;;;;;5.57;2.40;;;33.10;62.60;;;;;;10517940;28;20052;-34
2023/09/06 21:02:47;;;;;;;4.05;2.70;;;33.00;62.80;;;;;;10512499;28;20123;-35
2023/09/06 21:07:48;;;;;;;2.95;2.20;;;32.90;62.60;;;;;;10528243;28;20047;-39
2023/09/06 21:12:52;;;;;;;3.15;2.30;;;32.90;62.90;;;;;;10536736;28;20496;-33
2023/09/06 21:17:53;;;;;;;3.33;2.45;;;32.80;62.70;;;;;;10532301;28;20060;-34
2023/09/06 21:22:55;;;;;;;4.50;1.98;;;32.70;62.40;;;;;;10528090;28;20083;-33
2023/09/06 21:27:58;;;;;;;3.17;2.10;;;32.70;62.80;;;;;;10516675;28;20127;-38
2023/09/06 21:33:00;;;;;;;2.50;1.88;;;32.60;62.80;;;;;;10514113;28;20059;-32
2023/09/06 21:38:02;;;;;;;5.78;2.50;;;32.50;62.90;;;;;;10512799;28;20167;-33
2023/09/06 21:43:06;;;;;;;6.35;2.17;;;32.50;63.00;;;;;;10506416;28;20072;-39
2023/09/06 21:48:09;;;;;;;3.65;2.10;;;32.50;63.80;;;;;;10501337;28;20049;-40
2023/09/06 21:53:10;;;;;;;3.38;2.63;;;32.40;62.60;;;;;;10512605;28;20094;-37
2023/09/06 21:58:14;;;;;;;4.40;2.83;;;32.30;63.00;;;;;;10517930;28;20143;-35
2023/09/06 22:03:16;;;;;;;4.28;2.70;;;32.30;62.70;;;;;;10515933;28;20157;-37
2023/09/06 22:08:17;;;;;;;3.90;2.35;;;32.20;62.90;;;;;;10526881;28;20511;-37
2023/09/06 22:13:21;;;;;;;5.15;2.28;;;32.20;62.40;;;;;;10521622;28;20131;-36
2023/09/06 22:18:23;;;;;;;3.70;2.67;;;32.10;62.80;;;;;;10519391;28;20052;-34
2023/09/06 22:23:24;;;;;;;3.95;2.47;;;32.10;62.60;;;;;;10519271;28;20451;-32
2023/09/06 22:28:29;;;;;;;2.72;2.40;;;32.00;63.10;;;;;;10529028;28;20072;-37
2023/09/06 22:33:31;;;;;;;4.97;2.45;;;32.00;62.60;;;;;;10516452;28;20150;-35
2023/09/06 22:38:33;;;;;;;5.50;2.70;;;31.90;62.40;;;;;;10507719;28;20548;-32
2023/09/06 22:43:36;;;;;;;4.00;2.33;;;31.90;62.50;;;;;;10508035;28;20078;-39
2023/09/06 22:48:40;;;;;;;4.10;2.65;;;31.80;62.80;;;;;;10503352;28;20052;-36
2023/09/06 22:53:42;;;;;;;4.38;2.85;;;31.80;62.50;;;;;;10509710;28;20052;-37
2023/09/06 22:58:45;;;;;;;4.82;2.28;;;31.70;62.50;;;;;;10513390;28;20093;-32
2023/09/06 23:03:47;;;;;;;3.20;2.40;;;31.70;62.90;;;;;;10518450;28;20817;-32
2023/09/06 23:08:48;;;;;;;3.92;2.70;;;31.70;62.60;;;;;;10525894;28;20044;-38
2023/09/06 23:13:52;;;;;;;6.72;2.33;;;31.60;62.60;;;;;;10517160;28;20398;-37
2023/09/06 23:18:56;;;;;;;3.25;2.78;;;31.60;62.70;;;;;;10512453;28;20049;-40
2023/09/06 23:24:03;;;;;;;5.78;3.00;;;31.50;62.60;;;;;;10505099;28;20045;-40
2023/09/06 23:29:08;;;;;;;3.63;2.42;;;31.50;62.60;;;;;;10516687;28;20625;-38
2023/09/06 23:34:13;;;;;;;4.32;2.30;;;31.50;62.60;;;;;;10528367;28;20044;-35
2023/09/06 23:39:21;;;;;;;4.03;2.50;;;31.40;62.60;;;;;;10521769;28;20048;-33
2023/09/06 23:44:24;;;;;;;3.92;2.80;;;31.30;62.50;;;;;;10523292;28;20048;-35
2023/09/06 23:49:26;;;;;;;5.93;2.95;;;31.30;62.60;;;;;;10521442;28;20071;-35
2023/09/06 23:54:28;;;;;;;5.63;2.70;;;31.30;62.60;;;;;;10522308;28;20083;-36
2023/09/06 23:59:31;;;;;;;3.83;2.88;;;31.20;63.20;;;;;;10517856;28;20080;-37
